createdAt,value
2023-05-05T00:00:51.613Z,699.00
2023-05-05T00:01:51.694Z,688.00
2023-05-05T00:02:51.871Z,677.00
2023-05-05T00:03:51.943Z,698.00
2023-05-05T00:04:51.880Z,683.00
2023-05-05T00:05:51.981Z,686.00
2023-05-05T00:06:52.031Z,671.00
2023-05-05T00:07:52.112Z,669.00
2023-05-05T00:08:52.141Z,683.00
2023-05-05T00:09:52.193Z,689.00
2023-05-05T00:10:52.290Z,680.00
2023-05-05T00:11:52.376Z,690.00
2023-05-05T00:12:52.426Z,684.00
2023-05-05T00:13:52.523Z,686.00
2023-05-05T00:14:52.543Z,681.00
2023-05-05T00:15:52.562Z,689.00
2023-05-05T00:16:52.670Z,677.00
2023-05-05T00:17:52.799Z,667.00
2023-05-05T00:18:52.865Z,676.00
2023-05-05T00:19:53.685Z,676.00
2023-05-05T00:20:52.856Z,686.00
2023-05-05T00:21:52.939Z,683.00
2023-05-05T00:22:52.999Z,668.00
2023-05-05T00:23:53.021Z,665.00
2023-05-05T00:24:53.101Z,677.00
2023-05-05T00:25:53.150Z,674.00
2023-05-05T00:26:53.219Z,673.00
2023-05-05T00:27:53.290Z,678.00
2023-05-05T00:28:53.343Z,681.00
2023-05-05T00:29:53.423Z,676.00
2023-05-05T00:30:53.501Z,686.00
2023-05-05T00:31:53.553Z,664.00
2023-05-05T00:32:53.671Z,668.00
2023-05-05T00:33:53.694Z,666.00
2023-05-05T00:34:53.699Z,667.00
2023-05-05T00:35:53.749Z,663.00
2023-05-05T00:36:53.848Z,664.00
2023-05-05T00:37:54.065Z,666.00
2023-05-05T00:38:53.978Z,669.00
2023-05-05T00:39:54.030Z,659.00
2023-05-05T00:40:54.125Z,663.00
2023-05-05T00:41:54.127Z,668.00
2023-05-05T00:42:54.234Z,678.00
2023-05-05T00:43:54.310Z,670.00
2023-05-05T00:44:54.347Z,670.00
2023-05-05T00:45:54.430Z,678.00
2023-05-05T00:46:54.471Z,669.00
2023-05-05T00:47:54.653Z,669.00
2023-05-05T00:48:54.696Z,681.00
2023-05-05T00:49:54.648Z,673.00
2023-05-05T00:50:54.690Z,674.00
2023-05-05T00:51:54.868Z,672.00
2023-05-05T00:52:54.846Z,682.00
2023-05-05T00:53:54.893Z,671.00
2023-05-05T00:54:54.941Z,673.00
2023-05-05T00:55:55.037Z,672.00
2023-05-05T00:56:55.104Z,668.00
2023-05-05T00:57:55.167Z,669.00
2023-05-05T00:58:55.246Z,685.00
2023-05-05T00:59:55.282Z,691.00
2023-05-05T01:00:55.355Z,695.00
2023-05-05T01:01:55.473Z,694.00
2023-05-05T01:02:55.562Z,684.00
2023-05-05T01:03:55.649Z,682.00
2023-05-05T01:04:55.651Z,684.00
2023-05-05T01:05:55.632Z,684.00
2023-05-05T01:06:55.688Z,691.00
2023-05-05T01:07:55.754Z,702.00
2023-05-05T01:08:55.823Z,692.00
2023-05-05T01:10:07.604Z,694.00
2023-05-05T01:10:56.885Z,695.00
2023-05-05T01:11:55.829Z,695.00
2023-05-05T01:12:55.921Z,697.00
2023-05-05T01:13:55.805Z,702.00
2023-05-05T01:14:55.788Z,697.00
2023-05-05T01:15:55.827Z,702.00
2023-05-05T01:16:55.811Z,705.00
2023-05-05T01:17:55.830Z,724.00
2023-05-05T01:18:55.819Z,721.00
2023-05-05T01:19:55.977Z,723.00
2023-05-05T01:20:55.938Z,701.00
2023-05-05T01:21:56.026Z,713.00
2023-05-05T01:22:56.074Z,715.00
2023-05-05T01:23:56.105Z,701.00
2023-05-05T01:24:56.165Z,726.00
2023-05-05T01:25:56.235Z,729.00
2023-05-05T01:26:56.299Z,715.00
2023-05-05T01:27:56.376Z,719.00
2023-05-05T01:28:58.248Z,732.00
2023-05-05T01:29:56.508Z,723.00
2023-05-05T01:30:56.563Z,721.00
2023-05-05T01:31:56.751Z,727.00
2023-05-05T01:32:56.729Z,706.00
2023-05-05T01:33:56.749Z,706.00
2023-05-05T01:34:56.758Z,730.00
2023-05-05T01:35:56.838Z,721.00
2023-05-05T01:36:56.903Z,730.00
2023-05-05T01:37:56.973Z,736.00
2023-05-05T01:38:57.024Z,734.00
2023-05-05T01:39:57.013Z,729.00
2023-05-05T01:40:57.109Z,733.00
2023-05-05T01:41:57.146Z,732.00
2023-05-05T01:42:57.224Z,736.00
2023-05-05T01:43:57.258Z,728.00
2023-05-05T01:44:57.327Z,726.00
2023-05-05T01:45:57.480Z,725.00
2023-05-05T01:46:57.431Z,731.00
2023-05-05T01:47:57.539Z,727.00
2023-05-05T01:48:57.568Z,726.00
2023-05-05T01:49:57.620Z,722.00
2023-05-05T01:50:57.669Z,730.00
2023-05-05T01:51:57.738Z,715.00
2023-05-05T01:52:57.768Z,729.00
2023-05-05T01:53:57.837Z,725.00
2023-05-05T01:54:57.886Z,724.00
2023-05-05T01:55:57.976Z,711.00
2023-05-05T01:56:57.982Z,709.00
2023-05-05T01:57:58.034Z,703.00
2023-05-05T01:58:58.122Z,714.00
2023-05-05T01:59:58.182Z,720.00
2023-05-05T02:00:58.231Z,722.00
2023-05-05T02:01:58.295Z,723.00
2023-05-05T02:02:58.427Z,705.00
2023-05-05T02:03:58.375Z,719.00
2023-05-05T02:04:58.501Z,705.00
2023-05-05T02:05:58.506Z,720.00
2023-05-05T02:06:58.583Z,711.00
2023-05-05T02:07:58.687Z,712.00
2023-05-05T02:08:58.693Z,723.00
2023-05-05T02:09:58.691Z,719.00
2023-05-05T02:10:58.733Z,718.00
2023-05-05T02:11:58.789Z,703.00
2023-05-05T02:12:58.913Z,713.00
2023-05-05T02:13:58.943Z,718.00
2023-05-05T02:14:58.937Z,704.00
2023-05-05T02:15:59.014Z,703.00
2023-05-05T02:16:59.024Z,705.00
2023-05-05T02:17:59.096Z,704.00
2023-05-05T02:18:59.090Z,709.00
2023-05-05T02:19:59.129Z,706.00
2023-05-05T02:20:59.233Z,715.00
2023-05-05T02:21:59.218Z,709.00
2023-05-05T02:22:59.296Z,712.00
2023-05-05T02:23:59.267Z,721.00
2023-05-05T02:24:59.408Z,721.00
2023-05-05T02:25:59.405Z,714.00
2023-05-05T02:26:59.372Z,712.00
2023-05-05T02:27:59.431Z,696.00
2023-05-05T02:28:59.472Z,714.00
2023-05-05T02:29:59.536Z,693.00
2023-05-05T02:30:59.659Z,697.00
2023-05-05T02:31:59.589Z,698.00
2023-05-05T02:33:00.348Z,699.00
2023-05-05T02:33:59.650Z,710.00
2023-05-05T02:34:59.665Z,705.00
2023-05-05T02:35:59.775Z,697.00
2023-05-05T02:36:59.762Z,698.00
2023-05-05T02:37:59.794Z,686.00
2023-05-05T02:38:59.837Z,679.00
2023-05-05T02:39:59.943Z,692.00
2023-05-05T02:40:59.923Z,679.00
2023-05-05T02:41:59.959Z,675.00
2023-05-05T02:43:00.059Z,693.00
2023-05-05T02:44:00.032Z,691.00
2023-05-05T02:45:00.061Z,698.00
2023-05-05T02:46:00.187Z,688.00
2023-05-05T02:47:00.173Z,698.00
2023-05-05T02:48:00.287Z,694.00
2023-05-05T02:49:00.288Z,688.00
2023-05-05T02:50:00.288Z,688.00
2023-05-05T02:51:00.365Z,703.00
2023-05-05T02:52:00.451Z,697.00
2023-05-05T02:53:00.629Z,692.00
2023-05-05T02:54:00.522Z,687.00
2023-05-05T02:55:00.586Z,694.00
2023-05-05T02:56:00.603Z,691.00
2023-05-05T02:57:00.739Z,697.00
2023-05-05T02:58:00.756Z,692.00
2023-05-05T02:59:00.843Z,687.00
2023-05-05T03:00:00.881Z,697.00
2023-05-05T03:01:00.951Z,676.00
2023-05-05T03:02:00.980Z,681.00
2023-05-05T03:03:01.197Z,692.00
2023-05-05T03:04:01.116Z,673.00
2023-05-05T03:05:01.199Z,690.00
2023-05-05T03:06:01.251Z,682.00
2023-05-05T03:07:01.319Z,689.00
2023-05-05T03:08:01.389Z,676.00
2023-05-05T03:09:01.509Z,682.00
2023-05-05T03:10:01.478Z,677.00
2023-05-05T03:11:02.285Z,685.00
2023-05-05T03:12:01.619Z,687.00
2023-05-05T03:13:01.705Z,688.00
2023-05-05T03:14:01.710Z,687.00
2023-05-05T03:15:01.789Z,685.00
2023-05-05T03:16:01.945Z,681.00
2023-05-05T03:17:01.916Z,685.00
2023-05-05T03:18:02.024Z,680.00
2023-05-05T03:19:02.057Z,683.00
2023-05-05T03:20:03.757Z,681.00
2023-05-05T03:21:02.157Z,678.00
2023-05-05T03:22:02.206Z,675.00
2023-05-05T03:23:02.251Z,671.00
2023-05-05T03:24:02.308Z,673.00
2023-05-05T03:25:02.344Z,672.00
2023-05-05T03:26:02.401Z,671.00
2023-05-05T03:27:02.414Z,679.00
2023-05-05T03:28:02.494Z,675.00
2023-05-05T03:29:02.597Z,672.00
2023-05-05T03:30:02.601Z,677.00
2023-05-05T03:31:02.642Z,676.00
2023-05-05T03:32:02.774Z,686.00
2023-05-05T03:33:02.752Z,683.00
2023-05-05T03:34:02.744Z,685.00
2023-05-05T03:35:02.755Z,682.00
2023-05-05T03:36:02.834Z,678.00
2023-05-05T03:37:02.848Z,675.00
2023-05-05T03:38:02.869Z,672.00
2023-05-05T03:39:02.908Z,672.00
2023-05-05T03:40:02.983Z,675.00
2023-05-05T03:41:02.983Z,680.00
2023-05-05T03:42:02.992Z,684.00
2023-05-05T03:43:03.332Z,691.00
2023-05-05T03:44:03.090Z,690.00
2023-05-05T03:45:03.093Z,691.00
2023-05-05T03:46:03.855Z,694.00
2023-05-05T03:47:03.187Z,684.00
2023-05-05T03:48:03.242Z,691.00
2023-05-05T03:49:03.315Z,691.00
2023-05-05T03:50:03.295Z,695.00
2023-05-05T03:51:03.400Z,694.00
2023-05-05T03:52:03.428Z,687.00
2023-05-05T03:53:03.487Z,690.00
2023-05-05T03:54:03.481Z,691.00
2023-05-05T03:55:03.512Z,683.00
2023-05-05T03:56:03.562Z,686.00
2023-05-05T03:57:03.546Z,693.00
2023-05-05T03:58:03.596Z,693.00
2023-05-05T03:59:03.616Z,693.00
2023-05-05T04:00:03.636Z,690.00
2023-05-05T04:01:03.704Z,689.00
2023-05-05T04:02:03.718Z,685.00
2023-05-05T04:03:03.889Z,695.00
2023-05-05T04:04:03.796Z,690.00
2023-05-05T04:05:03.831Z,688.00
2023-05-05T04:06:03.906Z,694.00
2023-05-05T04:07:04.019Z,693.00
2023-05-05T04:08:03.929Z,690.00
2023-05-05T04:09:04.010Z,702.00
2023-05-05T04:10:04.046Z,701.00
2023-05-05T04:11:04.052Z,694.00
2023-05-05T04:12:04.119Z,697.00
2023-05-05T04:13:04.233Z,697.00
2023-05-05T04:14:04.168Z,694.00
2023-05-05T04:15:04.229Z,688.00
2023-05-05T04:16:04.323Z,689.00
2023-05-05T04:17:04.338Z,701.00
2023-05-05T04:18:04.455Z,701.00
2023-05-05T04:19:04.428Z,696.00
2023-05-05T04:20:04.522Z,699.00
2023-05-05T04:21:04.559Z,695.00
2023-05-05T04:22:04.729Z,694.00
2023-05-05T04:23:04.706Z,695.00
2023-05-05T04:24:04.758Z,687.00
2023-05-05T04:25:04.826Z,696.00
2023-05-05T04:26:04.847Z,685.00
2023-05-05T04:27:04.920Z,690.00
2023-05-05T04:28:05.005Z,694.00
2023-05-05T04:29:05.049Z,704.00
2023-05-05T04:30:05.133Z,690.00
2023-05-05T04:31:05.305Z,698.00
2023-05-05T04:32:05.161Z,700.00
2023-05-05T04:33:05.239Z,694.00
2023-05-05T04:34:05.318Z,703.00
2023-05-05T04:35:05.353Z,706.00
2023-05-05T04:36:05.407Z,704.00
2023-05-05T04:37:05.466Z,705.00
2023-05-05T04:38:05.527Z,707.00
2023-05-05T04:39:05.618Z,710.00
2023-05-05T04:40:05.615Z,704.00
2023-05-05T04:41:05.595Z,694.00
2023-05-05T04:42:05.652Z,703.00
2023-05-05T04:43:05.722Z,705.00
2023-05-05T04:44:05.742Z,705.00
2023-05-05T04:45:05.771Z,715.00
2023-05-05T04:46:05.968Z,716.00
2023-05-05T04:47:05.876Z,713.00
2023-05-05T04:48:05.983Z,712.00
2023-05-05T04:49:05.996Z,725.00
2023-05-05T04:50:06.224Z,725.00
2023-05-05T04:51:06.075Z,728.00
2023-05-05T04:52:06.096Z,721.00
2023-05-05T04:53:06.162Z,731.00
2023-05-05T04:54:06.236Z,730.00
2023-05-05T04:55:06.203Z,725.00
2023-05-05T04:56:06.281Z,736.00
2023-05-05T04:57:06.245Z,739.00
2023-05-05T04:58:06.318Z,741.00
2023-05-05T04:59:06.349Z,733.00
2023-05-05T05:00:06.518Z,741.00
2023-05-05T05:01:06.373Z,752.00
2023-05-05T05:02:06.448Z,751.00
2023-05-05T05:03:06.513Z,748.00
2023-05-05T05:04:06.502Z,753.00
2023-05-05T05:05:06.497Z,756.00
2023-05-05T05:06:06.529Z,764.00
2023-05-05T05:07:06.582Z,755.00
2023-05-05T05:08:06.877Z,771.00
2023-05-05T05:09:06.582Z,771.00
2023-05-05T05:10:06.789Z,775.00
2023-05-05T05:11:07.347Z,776.00
2023-05-05T05:12:06.629Z,780.00
2023-05-05T05:13:06.671Z,782.00
2023-05-05T05:14:06.663Z,786.00
2023-05-05T05:15:06.667Z,795.00
2023-05-05T05:16:06.719Z,792.00
2023-05-05T05:17:06.684Z,784.00
2023-05-05T05:18:06.784Z,782.00
2023-05-05T05:19:06.753Z,784.00
2023-05-05T05:20:06.919Z,799.00
2023-05-05T05:21:06.766Z,793.00
2023-05-05T05:22:06.754Z,800.00
2023-05-05T05:23:06.838Z,808.00
2023-05-05T05:24:06.827Z,798.00
2023-05-05T05:25:06.872Z,806.00
2023-05-05T05:26:07.910Z,803.00
2023-05-05T05:27:09.688Z,808.00
2023-05-05T05:28:10.723Z,819.00
2023-05-05T05:29:06.970Z,821.00
2023-05-05T05:30:07.208Z,821.00
2023-05-05T05:31:06.907Z,821.00
2023-05-05T05:32:07.055Z,822.00
2023-05-05T05:33:06.901Z,858.00
2023-05-05T05:34:06.815Z,1040.00
2023-05-05T05:35:06.960Z,1020.00
2023-05-05T05:36:06.818Z,1016.00
2023-05-05T05:37:06.807Z,1040.00
2023-05-05T05:38:07.370Z,1070.00
2023-05-05T05:39:06.870Z,1088.00
2023-05-05T05:40:06.957Z,1089.00
2023-05-05T05:41:07.392Z,1122.00
2023-05-05T05:42:06.988Z,1115.00
2023-05-05T05:43:06.761Z,1089.00
2023-05-05T05:44:06.761Z,1085.00
2023-05-05T05:45:06.737Z,1087.00
2023-05-05T05:46:09.035Z,1102.00
2023-05-05T05:47:06.989Z,1180.00
2023-05-05T05:48:07.112Z,1198.00
2023-05-05T05:49:07.835Z,1188.00
2023-05-05T05:50:07.328Z,1209.00
2023-05-05T05:51:07.867Z,1240.00
2023-05-05T05:52:07.111Z,1237.00
2023-05-05T05:53:07.163Z,1288.00
2023-05-05T05:54:07.211Z,1223.00
2023-05-05T05:55:07.277Z,1186.00
2023-05-05T05:56:07.333Z,1207.00
2023-05-05T05:57:07.422Z,1204.00
2023-05-05T05:58:07.479Z,1186.00
2023-05-05T05:59:07.630Z,1157.00
2023-05-05T06:00:07.927Z,1128.00
2023-05-05T06:01:07.711Z,1102.00
2023-05-05T06:02:07.766Z,1084.00
2023-05-05T06:03:08.173Z,1070.00
2023-05-05T06:04:07.957Z,1045.00
2023-05-05T06:05:07.894Z,1041.00
2023-05-05T06:06:07.939Z,1045.00
2023-05-05T06:07:08.835Z,1038.00
2023-05-05T06:08:08.022Z,1026.00
2023-05-05T06:09:08.146Z,1027.00
2023-05-05T06:10:25.659Z,1165.00
2023-05-05T06:11:09.137Z,1168.00
2023-05-05T06:12:08.104Z,1152.00
2023-05-05T06:13:08.201Z,1113.00
2023-05-05T06:14:08.085Z,1071.00
2023-05-05T06:15:08.126Z,1058.00
2023-05-05T06:16:08.108Z,1055.00
2023-05-05T06:17:08.092Z,1049.00
2023-05-05T06:18:08.078Z,1035.00
2023-05-05T06:19:08.185Z,1043.00
2023-05-05T06:20:09.022Z,1049.00
2023-05-05T06:21:08.881Z,1064.00
2023-05-05T06:22:08.023Z,1060.00
2023-05-05T06:23:08.057Z,1057.00
2023-05-05T06:24:08.840Z,1070.00
2023-05-05T06:25:08.139Z,1065.00
2023-05-05T06:26:08.164Z,1051.00
2023-05-05T06:27:09.875Z,1061.00
2023-05-05T06:28:08.223Z,1053.00
2023-05-05T06:29:09.570Z,1041.00
2023-05-05T06:30:08.403Z,1045.00
2023-05-05T06:31:08.301Z,1027.00
2023-05-05T06:32:08.221Z,1011.00
2023-05-05T06:33:08.397Z,1000.00
2023-05-05T06:34:08.198Z,996.00
2023-05-05T06:35:08.240Z,981.00
2023-05-05T06:36:08.230Z,947.00
2023-05-05T06:37:08.210Z,909.00
2023-05-05T06:38:08.177Z,913.00
2023-05-05T06:39:09.949Z,874.00
2023-05-05T06:40:08.388Z,944.00
2023-05-05T06:41:08.126Z,981.00
2023-05-05T06:42:08.146Z,895.00
2023-05-05T06:43:08.132Z,841.00
2023-05-05T06:44:08.167Z,736.00
2023-05-05T06:45:08.154Z,661.00
2023-05-05T06:46:08.116Z,631.00
2023-05-05T06:47:08.146Z,584.00
2023-05-05T06:48:08.246Z,575.00
2023-05-05T06:49:08.189Z,593.00
2023-05-05T06:50:08.270Z,578.00
2023-05-05T06:51:08.064Z,567.00
2023-05-05T06:52:08.145Z,549.00
2023-05-05T06:53:08.146Z,551.00
2023-05-05T06:54:08.337Z,534.00
2023-05-05T06:55:08.255Z,515.00
2023-05-05T06:56:08.258Z,516.00
2023-05-05T06:57:09.916Z,516.00
2023-05-05T06:58:08.360Z,519.00
2023-05-05T06:59:08.423Z,508.00
2023-05-05T07:00:08.667Z,500.00
2023-05-05T07:01:08.494Z,497.00
2023-05-05T07:02:08.528Z,500.00
2023-05-05T07:03:08.565Z,499.00
2023-05-05T07:04:08.932Z,499.00
2023-05-05T07:05:08.863Z,512.00
2023-05-05T07:06:08.660Z,520.00
2023-05-05T07:07:08.672Z,501.00
2023-05-05T07:08:08.755Z,507.00
2023-05-05T07:09:09.369Z,506.00
2023-05-05T07:10:09.019Z,504.00
2023-05-05T07:11:08.811Z,506.00
2023-05-05T07:12:08.922Z,500.00
2023-05-05T07:13:09.135Z,504.00
2023-05-05T07:14:09.125Z,500.00
2023-05-05T07:15:23.317Z,506.00
2023-05-05T07:16:10.056Z,494.00
2023-05-05T07:17:09.009Z,481.00
2023-05-05T07:18:08.935Z,485.00
2023-05-05T07:19:08.910Z,471.00
2023-05-05T07:20:09.127Z,465.00
2023-05-05T07:21:08.932Z,500.00
2023-05-05T07:22:08.945Z,499.00
2023-05-05T07:23:08.873Z,500.00
2023-05-05T07:24:08.934Z,496.00
2023-05-05T07:25:08.932Z,497.00
2023-05-05T07:26:08.858Z,500.00
2023-05-05T07:27:08.850Z,507.00
2023-05-05T07:28:08.850Z,524.00
2023-05-05T07:29:08.890Z,532.00
2023-05-05T07:30:12.576Z,521.00
2023-05-05T07:31:09.847Z,523.00
2023-05-05T07:32:08.881Z,531.00
2023-05-05T07:33:08.898Z,538.00
2023-05-05T07:34:08.878Z,572.00
2023-05-05T07:35:08.881Z,606.00
2023-05-05T07:36:08.798Z,626.00
2023-05-05T07:37:08.835Z,614.00
2023-05-05T07:38:10.801Z,598.00
2023-05-05T07:39:08.847Z,596.00
2023-05-05T07:40:09.641Z,596.00
2023-05-05T07:41:08.751Z,620.00
2023-05-05T07:42:08.922Z,619.00
2023-05-05T07:43:08.726Z,605.00
2023-05-05T07:44:08.705Z,599.00
2023-05-05T07:45:08.728Z,621.00
2023-05-05T07:46:08.798Z,624.00
2023-05-05T07:47:08.736Z,607.00
2023-05-05T07:48:08.724Z,644.00
2023-05-05T07:49:08.696Z,643.00
2023-05-05T07:50:08.854Z,633.00
2023-05-05T07:51:08.752Z,627.00
2023-05-05T07:52:08.800Z,620.00
2023-05-05T07:53:14.324Z,625.00
2023-05-05T07:54:09.863Z,625.00
2023-05-05T07:55:08.747Z,625.00
2023-05-05T07:56:08.772Z,628.00
2023-05-05T07:57:08.823Z,634.00
2023-05-05T07:58:08.761Z,618.00
2023-05-05T07:59:08.722Z,617.00
2023-05-05T08:00:08.897Z,608.00
2023-05-05T08:01:08.719Z,599.00
2023-05-05T08:02:08.765Z,584.00
2023-05-05T08:03:11.247Z,578.00
2023-05-05T08:04:08.971Z,573.00
2023-05-05T08:05:09.106Z,550.00
2023-05-05T08:06:08.671Z,533.00
2023-05-05T08:07:08.663Z,530.00
2023-05-05T08:08:08.678Z,535.00
2023-05-05T08:09:08.773Z,548.00
2023-05-05T08:10:08.720Z,543.00
2023-05-05T08:11:08.642Z,544.00
2023-05-05T08:12:08.646Z,572.00
2023-05-05T08:13:08.653Z,565.00
2023-05-05T08:14:08.645Z,595.00
2023-05-05T08:15:08.941Z,617.00
2023-05-05T08:16:08.680Z,633.00
2023-05-05T08:17:08.918Z,659.00
2023-05-05T08:18:08.575Z,660.00
2023-05-05T08:19:21.082Z,642.00
2023-05-05T08:20:09.597Z,643.00
2023-05-05T08:21:08.764Z,648.00
2023-05-05T08:22:08.556Z,662.00
2023-05-05T08:23:08.579Z,735.00
2023-05-05T08:24:09.404Z,918.00
2023-05-05T08:25:08.809Z,943.00
2023-05-05T08:26:08.548Z,940.00
2023-05-05T08:27:08.543Z,1195.00
2023-05-05T08:28:08.521Z,1451.00
2023-05-05T08:29:08.698Z,1675.00
2023-05-05T08:30:08.511Z,1773.00
2023-05-05T08:31:08.628Z,1804.00
2023-05-05T08:32:08.619Z,1817.00
2023-05-05T08:33:08.718Z,1814.00
2023-05-05T08:34:08.933Z,1716.00
2023-05-05T08:35:09.107Z,1606.00
2023-05-05T08:36:08.914Z,1567.00
2023-05-05T08:37:08.911Z,1518.00
2023-05-05T08:38:08.979Z,1489.00
2023-05-05T08:39:09.054Z,1492.00
2023-05-05T08:40:09.069Z,1452.00
2023-05-05T08:41:09.271Z,1556.00
2023-05-05T08:42:09.143Z,1565.00
2023-05-05T08:43:09.235Z,1656.00
2023-05-05T08:44:09.448Z,1812.00
2023-05-05T08:45:09.713Z,1846.00
2023-05-05T08:46:09.925Z,2024.00
2023-05-05T08:47:09.424Z,1947.00
2023-05-05T08:48:09.463Z,2004.00
2023-05-05T08:49:09.424Z,2014.00
2023-05-05T08:50:09.565Z,2120.00
2023-05-05T08:51:09.518Z,1966.00
2023-05-05T08:52:09.596Z,1961.00
2023-05-05T08:53:09.706Z,1935.00
2023-05-05T08:54:09.683Z,1912.00
2023-05-05T08:55:09.830Z,1955.00
2023-05-05T08:56:09.808Z,2144.00
2023-05-05T08:57:09.848Z,2010.00
2023-05-05T08:58:09.938Z,2082.00
2023-05-05T08:59:09.924Z,2093.00
2023-05-05T09:00:09.950Z,2008.00
2023-05-05T09:01:10.024Z,1928.00
2023-05-05T09:02:10.053Z,2066.00
2023-05-05T09:03:10.091Z,1986.00
2023-05-05T09:04:10.047Z,2024.00
2023-05-05T09:05:10.389Z,2044.00
2023-05-05T09:06:10.160Z,2214.00
2023-05-05T09:07:10.220Z,2278.00
2023-05-05T09:08:10.239Z,2177.00
2023-05-05T09:09:10.293Z,2000.00
2023-05-05T09:10:10.364Z,1909.00
2023-05-05T09:11:10.371Z,1830.00
2023-05-05T09:12:10.961Z,1921.00
2023-05-05T09:13:11.493Z,1965.00
2023-05-05T09:14:10.530Z,1949.00
2023-05-05T09:15:10.804Z,1990.00
2023-05-05T09:16:10.603Z,2020.00
2023-05-05T09:17:10.647Z,1930.00
2023-05-05T09:18:10.713Z,1970.00
2023-05-05T09:19:10.679Z,2045.00
2023-05-05T09:20:10.778Z,1942.00
2023-05-05T09:21:10.797Z,1943.00
2023-05-05T09:22:10.835Z,1869.00
2023-05-05T09:23:10.897Z,1922.00
2023-05-05T09:24:10.938Z,1922.00
2023-05-05T09:25:10.962Z,1947.00
2023-05-05T09:26:11.921Z,1993.00
2023-05-05T09:27:11.052Z,2011.00
2023-05-05T09:28:11.343Z,2076.00
2023-05-05T09:29:11.475Z,2064.00
2023-05-05T09:30:11.255Z,1919.00
2023-05-05T09:31:11.364Z,1948.00
2023-05-05T09:32:11.418Z,1862.00
2023-05-05T09:33:11.611Z,1844.00
2023-05-05T09:34:11.464Z,2002.00
2023-05-05T09:35:11.557Z,2188.00
2023-05-05T09:36:11.561Z,2321.00
2023-05-05T09:37:11.600Z,2386.00
2023-05-05T09:38:11.643Z,2433.00
2023-05-05T09:39:12.033Z,2476.00
2023-05-05T09:40:11.777Z,2397.00
2023-05-05T09:41:11.773Z,2372.00
2023-05-05T09:42:11.845Z,2281.00
2023-05-05T09:43:11.899Z,2260.00
2023-05-05T09:44:12.035Z,2235.00
2023-05-05T09:45:12.057Z,2259.00
2023-05-05T09:46:11.993Z,2222.00
2023-05-05T09:47:26.041Z,2089.00
2023-05-05T09:48:13.126Z,2039.00
2023-05-05T09:49:12.025Z,2034.00
2023-05-05T09:50:11.998Z,1941.00
2023-05-05T09:51:11.988Z,1892.00
2023-05-05T09:52:11.975Z,1904.00
2023-05-05T09:53:12.001Z,1996.00
2023-05-05T09:54:12.022Z,2167.00
2023-05-05T09:55:11.977Z,2139.00
2023-05-05T09:56:11.945Z,2112.00
2023-05-05T09:57:11.963Z,2065.00
2023-05-05T09:58:11.976Z,1878.00
2023-05-05T09:59:11.999Z,1775.00
2023-05-05T10:00:12.128Z,1751.00
2023-05-05T10:01:12.006Z,1643.00
2023-05-05T10:02:11.962Z,1734.00
2023-05-05T10:03:12.055Z,1833.00
2023-05-05T10:04:12.942Z,1888.00
2023-05-05T10:05:12.073Z,1939.00
2023-05-05T10:06:12.062Z,1991.00
2023-05-05T10:07:12.109Z,1857.00
2023-05-05T10:08:12.153Z,1771.00
2023-05-05T10:09:12.176Z,1721.00
2023-05-05T10:10:12.246Z,1722.00
2023-05-05T10:11:12.220Z,1841.00
2023-05-05T10:12:12.345Z,1855.00
2023-05-05T10:13:12.382Z,1793.00
2023-05-05T10:14:12.335Z,1666.00
2023-05-05T10:15:12.388Z,1641.00
2023-05-05T10:16:12.486Z,1462.00
2023-05-05T10:17:12.811Z,1413.00
2023-05-05T10:18:13.039Z,1409.00
2023-05-05T10:19:13.483Z,1278.00
2023-05-05T10:20:12.551Z,1298.00
2023-05-05T10:21:12.616Z,1306.00
2023-05-05T10:22:12.627Z,1288.00
2023-05-05T10:23:12.967Z,1226.00
2023-05-05T10:24:12.726Z,1282.00
2023-05-05T10:25:12.765Z,1352.00
2023-05-05T10:26:12.765Z,1327.00
2023-05-05T10:27:12.805Z,1409.00
2023-05-05T10:28:12.950Z,1580.00
2023-05-05T10:29:12.925Z,1684.00
2023-05-05T10:30:13.476Z,1729.00
2023-05-05T10:31:24.489Z,1829.00
2023-05-05T10:32:40.694Z,1832.00
2023-05-05T10:33:30.268Z,1830.00
2023-05-05T10:34:14.055Z,1830.00
2023-05-05T10:35:12.925Z,1839.00
2023-05-05T10:36:13.009Z,1737.00
2023-05-05T10:37:13.437Z,1663.00
2023-05-05T10:38:13.072Z,1662.00
2023-05-05T10:39:12.945Z,1662.00
2023-05-05T10:40:13.017Z,1607.00
2023-05-05T10:41:12.896Z,1636.00
2023-05-05T10:42:12.905Z,1641.00
2023-05-05T10:43:12.953Z,1619.00
2023-05-05T10:44:12.897Z,1625.00
2023-05-05T10:45:13.036Z,1644.00
2023-05-05T10:46:12.914Z,1589.00
2023-05-05T10:47:12.850Z,1617.00
2023-05-05T10:48:12.935Z,1604.00
2023-05-05T10:49:13.542Z,1662.00
2023-05-05T10:50:13.034Z,1653.00
2023-05-05T10:51:15.329Z,1709.00
2023-05-05T10:52:13.848Z,1710.00
2023-05-05T10:53:12.815Z,1716.00
2023-05-05T10:54:12.950Z,1727.00
2023-05-05T10:55:13.175Z,1736.00
2023-05-05T10:56:12.832Z,1712.00
2023-05-05T10:57:12.760Z,1748.00
2023-05-05T10:58:12.812Z,1769.00
2023-05-05T10:59:12.796Z,1720.00
2023-05-05T11:00:15.071Z,1762.00
2023-05-05T11:01:12.795Z,1779.00
2023-05-05T11:02:12.747Z,1772.00
2023-05-05T11:03:12.825Z,1738.00
2023-05-05T11:04:12.778Z,1699.00
2023-05-05T11:05:12.876Z,1897.00
2023-05-05T11:06:12.863Z,1869.00
2023-05-05T11:07:15.132Z,1606.00
2023-05-05T11:08:12.851Z,1209.00
2023-05-05T11:09:12.859Z,1156.00
2023-05-05T11:10:12.845Z,920.00
2023-05-05T11:11:12.850Z,1089.00
2023-05-05T11:12:12.833Z,1030.00
2023-05-05T11:13:12.885Z,1051.00
2023-05-05T11:14:13.778Z,804.00
2023-05-05T11:15:12.955Z,658.00
2023-05-05T11:16:12.875Z,711.00
2023-05-05T11:17:12.854Z,957.00
2023-05-05T11:18:12.849Z,1221.00
2023-05-05T11:19:12.823Z,1730.00
2023-05-05T11:20:12.817Z,1910.00
2023-05-05T11:21:12.881Z,1943.00
2023-05-05T11:22:12.788Z,1522.00
2023-05-05T11:23:15.220Z,1408.00
2023-05-05T11:24:12.779Z,1283.00
2023-05-05T11:25:12.765Z,1132.00
2023-05-05T11:26:12.741Z,925.00
2023-05-05T11:27:12.716Z,955.00
2023-05-05T11:28:12.727Z,996.00
2023-05-05T11:29:12.744Z,1124.00
2023-05-05T11:30:12.845Z,1224.00
2023-05-05T11:31:12.723Z,1270.00
2023-05-05T11:32:12.689Z,1473.00
2023-05-05T11:33:12.696Z,1654.00
2023-05-05T11:34:12.684Z,1818.00
2023-05-05T11:35:12.700Z,1864.00
2023-05-05T11:36:12.718Z,1778.00
2023-05-05T11:37:12.735Z,1779.00
2023-05-05T11:38:12.694Z,1706.00
2023-05-05T11:39:12.657Z,1662.00
2023-05-05T11:40:12.666Z,1675.00
2023-05-05T11:41:12.708Z,1688.00
2023-05-05T11:42:12.663Z,1657.00
2023-05-05T11:43:12.668Z,1639.00
2023-05-05T11:44:12.624Z,1644.00
2023-05-05T11:45:12.609Z,1658.00
2023-05-05T11:46:13.533Z,1669.00
2023-05-05T11:47:12.613Z,1712.00
2023-05-05T11:48:12.660Z,1712.00
2023-05-05T11:49:12.595Z,1702.00
2023-05-05T11:50:12.609Z,1718.00
2023-05-05T11:51:12.563Z,1392.00
2023-05-05T11:52:12.623Z,1562.00
2023-05-05T11:53:12.997Z,1634.00
2023-05-05T11:54:12.534Z,1642.00
2023-05-05T11:55:12.536Z,1451.00
2023-05-05T11:56:12.554Z,1430.00
2023-05-05T11:57:12.538Z,1442.00
2023-05-05T11:58:13.051Z,1458.00
2023-05-05T11:59:12.530Z,1403.00
2023-05-05T12:00:12.552Z,1560.00
2023-05-05T12:01:12.532Z,1677.00
2023-05-05T12:02:12.477Z,1774.00
2023-05-05T12:03:12.776Z,1877.00
2023-05-05T12:04:12.585Z,1967.00
2023-05-05T12:05:12.485Z,2046.00
2023-05-05T12:06:12.474Z,2124.00
2023-05-05T12:07:12.464Z,2150.00
2023-05-05T12:08:12.490Z,2197.00
2023-05-05T12:09:12.556Z,2196.00
2023-05-05T12:10:12.623Z,2183.00
2023-05-05T12:11:12.597Z,2150.00
2023-05-05T12:12:12.623Z,2106.00
2023-05-05T12:13:12.730Z,2066.00
2023-05-05T12:14:12.718Z,2038.00
2023-05-05T12:15:12.740Z,2051.00
2023-05-05T12:16:12.861Z,2001.00
2023-05-05T12:17:12.822Z,1685.00
2023-05-05T12:18:12.947Z,1736.00
2023-05-05T12:19:12.905Z,1833.00
2023-05-05T12:20:13.324Z,1814.00